Time;durP1;ratioP1;P1;durP2;ratioP2;P2;SDS_P1;SDS_P2;PMS_P1;PMS_P2;Temp;Humidity;BMP_temperature;BMP_pressure;BME280_temperature;BME280_humidity;BME280_pressure;Samples;Min_cycle;Max_cycle;Signal;HPM_P1;HPM_P2
2023/07/18 00:00:30;;;;;;;2.40;1.27;;;;;;;;;;6359947;28;20245;-79
2023/07/18 00:03:34;;;;;;;1.40;1.40;;;;;;;;;;6360523;28;20514;-79
2023/07/18 00:06:40;;;;;;;3.95;1.38;;;;;;;;;;6359922;28;20559;-79
2023/07/18 00:09:44;;;;;;;3.58;1.77;;;;;;;;;;6361268;28;20265;-79
2023/07/18 00:12:47;;;;;;;1.52;1.52;;;;;;;;;;6364930;28;20241;-79
2023/07/18 00:15:53;;;;;;;1.50;1.40;;;;;;;;;;6364941;28;20470;-79
2023/07/18 00:18:56;;;;;;;2.28;1.33;;;;;;;;;;6364896;28;20400;-80
2023/07/18 00:22:00;;;;;;;1.65;1.55;;;;;;;;;;6365061;28;20257;-78
2023/07/18 00:25:04;;;;;;;2.83;1.70;;;;;;;;;;6364703;28;20241;-78
2023/07/18 00:28:09;;;;;;;3.05;1.30;;;;;;;;;;6364568;28;20238;-79
2023/07/18 00:31:14;;;;;;;2.95;1.42;;;;;;;;;;6363260;28;20556;-78
2023/07/18 00:34:18;;;;;;;2.22;1.73;;;;;;;;;;6364779;28;20242;-79
2023/07/18 00:37:21;;;;;;;2.25;1.50;;;;;;;;;;6362988;28;20285;-80
2023/07/18 00:40:25;;;;;;;3.70;1.52;;;;;;;;;;6364431;28;20237;-79
2023/07/18 00:43:33;;;;;;;1.60;1.30;;;;;;;;;;6363274;28;20346;-79
2023/07/18 00:46:40;;;;;;;1.55;1.40;;;;;;;;;;6363296;28;20550;-79
2023/07/18 00:49:44;;;;;;;1.70;1.58;;;;;;;;;;6364320;28;20261;-79
2023/07/18 00:52:50;;;;;;;3.58;1.50;;;;;;;;;;6363167;28;20261;-79
2023/07/18 00:55:54;;;;;;;1.60;1.50;;;;;;;;;;6363877;28;20414;-79
2023/07/18 00:58:58;;;;;;;8.45;1.70;;;;;;;;;;6362578;28;20289;-79
2023/07/18 01:02:05;;;;;;;3.22;1.35;;;;;;;;;;6371020;22;20298;-73
2023/07/18 01:05:10;;;;;;;1.50;1.40;;;;;;;;;;6295651;28;20263;-74
2023/07/18 01:08:15;;;;;;;3.90;1.77;;;;;;;;;;6314482;28;20230;-74
2023/07/18 01:11:19;;;;;;;1.73;1.58;;;;;;;;;;6295981;28;20286;-74
2023/07/18 01:14:25;;;;;;;3.25;1.60;;;;;;;;;;6314211;28;20239;-74
2023/07/18 01:17:30;;;;;;;3.03;1.50;;;;;;;;;;6294959;28;20275;-74
2023/07/18 01:20:36;;;;;;;1.45;1.35;;;;;;;;;;6295929;28;20278;-74
2023/07/18 01:23:41;;;;;;;1.60;1.42;;;;;;;;;;6295428;28;20271;-74
2023/07/18 01:26:44;;;;;;;2.58;1.45;;;;;;;;;;6294553;28;20270;-74
2023/07/18 01:29:51;;;;;;;4.45;1.58;;;;;;;;;;6295328;28;20290;-75
2023/07/18 01:32:55;;;;;;;1.55;1.45;;;;;;;;;;6294611;28;20266;-75
2023/07/18 01:35:59;;;;;;;4.03;1.70;;;;;;;;;;6295638;28;20266;-75
2023/07/18 01:39:05;;;;;;;2.30;1.38;;;;;;;;;;6313581;28;20262;-74
2023/07/18 01:42:09;;;;;;;4.15;1.65;;;;;;;;;;6313892;28;20240;-74
2023/07/18 01:45:13;;;;;;;1.55;1.48;;;;;;;;;;6313203;28;20239;-74
2023/07/18 01:48:18;;;;;;;4.10;1.60;;;;;;;;;;6313565;28;20236;-74
2023/07/18 01:51:21;;;;;;;1.67;1.58;;;;;;;;;;6294858;28;20309;-74
2023/07/18 01:54:27;;;;;;;1.77;1.67;;;;;;;;;;6313278;28;20239;-74
2023/07/18 01:57:31;;;;;;;1.95;1.27;;;;;;;;;;6296159;28;20566;-74
2023/07/18 02:00:36;;;;;;;4.68;1.63;;;;;;;;;;6314651;28;20239;-74
2023/07/18 02:03:39;;;;;;;2.25;1.58;;;;;;;;;;6313174;28;20294;-74
2023/07/18 02:06:43;;;;;;;2.72;1.40;;;;;;;;;;6293675;28;20270;-74
2023/07/18 02:09:49;;;;;;;1.50;1.40;;;;;;;;;;6312754;28;20258;-74
2023/07/18 02:12:54;;;;;;;1.30;1.30;;;;;;;;;;6313106;28;20239;-75
2023/07/18 02:15:58;;;;;;;4.55;1.58;;;;;;;;;;6294166;28;20283;-74
2023/07/18 02:19:04;;;;;;;8.10;2.17;;;;;;;;;;6312854;28;20239;-74
2023/07/18 02:22:08;;;;;;;1.52;1.40;;;;;;;;;;6294802;28;20269;-75
2023/07/18 02:25:15;;;;;;;1.95;1.67;;;;;;;;;;6293710;28;20266;-74
2023/07/18 02:28:19;;;;;;;1.50;1.42;;;;;;;;;;6312258;28;20235;-74
2023/07/18 02:31:22;;;;;;;2.03;1.67;;;;;;;;;;6312522;28;20527;-75
2023/07/18 02:34:27;;;;;;;4.20;2.15;;;;;;;;;;6311504;28;20258;-74
2023/07/18 02:37:30;;;;;;;1.70;1.60;;;;;;;;;;6312095;28;20235;-74
2023/07/18 02:40:35;;;;;;;4.97;1.70;;;;;;;;;;6312303;28;20247;-74
2023/07/18 02:43:40;;;;;;;2.35;1.90;;;;;;;;;;6311441;28;20243;-74
2023/07/18 02:46:44;;;;;;;1.50;1.40;;;;;;;;;;6311891;28;20243;-74
2023/07/18 02:49:48;;;;;;;1.63;1.52;;;;;;;;;;6311429;28;20345;-74
2023/07/18 02:52:52;;;;;;;2.13;1.52;;;;;;;;;;6293167;28;20274;-74
2023/07/18 02:55:57;;;;;;;2.63;1.50;;;;;;;;;;6311733;28;20235;-75
2023/07/18 02:59:01;;;;;;;4.22;1.58;;;;;;;;;;6293662;28;20276;-74
2023/07/18 03:02:06;;;;;;;4.10;1.52;;;;;;;;;;6292428;28;20294;-74
2023/07/18 03:05:10;;;;;;;3.53;1.63;;;;;;;;;;6310943;28;20239;-74
2023/07/18 03:08:14;;;;;;;2.38;1.90;;;;;;;;;;6311185;28;20235;-74
2023/07/18 03:11:19;;;;;;;6.80;1.60;;;;;;;;;;6293489;28;20298;-74
2023/07/18 03:14:23;;;;;;;4.03;1.40;;;;;;;;;;6312024;28;20430;-75
2023/07/18 03:17:27;;;;;;;1.70;1.60;;;;;;;;;;6292250;28;20290;-75
2023/07/18 03:20:31;;;;;;;1.88;1.60;;;;;;;;;;6311023;28;20311;-74
2023/07/18 03:23:35;;;;;;;3.50;1.65;;;;;;;;;;6293372;28;20280;-74
2023/07/18 03:26:40;;;;;;;3.05;1.88;;;;;;;;;;6310790;28;20235;-74
2023/07/18 03:29:44;;;;;;;2.10;2.00;;;;;;;;;;6310812;28;20511;-74
2023/07/18 03:32:50;;;;;;;2.03;1.73;;;;;;;;;;6292059;28;20354;-74
2023/07/18 03:35:53;;;;;;;4.32;1.98;;;;;;;;;;6292934;28;20350;-75
2023/07/18 03:38:57;;;;;;;2.05;1.50;;;;;;;;;;6310987;28;20235;-75
2023/07/18 03:42:03;;;;;;;2.92;1.35;;;;;;;;;;6293128;28;20278;-74
2023/07/18 03:45:09;;;;;;;3.80;1.70;;;;;;;;;;6310495;28;20243;-75
2023/07/18 03:48:13;;;;;;;1.75;1.50;;;;;;;;;;6291576;28;20346;-74
2023/07/18 03:51:17;;;;;;;1.70;1.60;;;;;;;;;;6310696;28;20262;-74
2023/07/18 03:54:21;;;;;;;1.88;1.70;;;;;;;;;;6311123;28;20248;-74
2023/07/18 03:57:27;;;;;;;4.28;1.83;;;;;;;;;;6310445;28;20235;-74
2023/07/18 04:00:31;;;;;;;4.93;1.70;;;;;;;;;;6311033;28;20247;-74
2023/07/18 04:03:35;;;;;;;2.80;1.90;;;;;;;;;;6310436;28;20294;-74
2023/07/18 04:06:39;;;;;;;3.53;1.73;;;;;;;;;;6310964;28;20238;-74
2023/07/18 04:09:43;;;;;;;3.47;1.67;;;;;;;;;;6310603;28;20231;-74
2023/07/18 04:12:48;;;;;;;3.55;1.65;;;;;;;;;;6291623;28;20294;-74
2023/07/18 04:15:53;;;;;;;3.20;1.77;;;;;;;;;;6310419;28;20528;-75
2023/07/18 04:18:56;;;;;;;4.43;1.95;;;;;;;;;;6310050;28;20243;-75
2023/07/18 04:22:00;;;;;;;3.95;2.10;;;;;;;;;;6310300;28;20242;-75
2023/07/18 04:25:05;;;;;;;2.45;1.67;;;;;;;;;;6309824;28;20247;-74
2023/07/18 04:28:10;;;;;;;2.83;2.00;;;;;;;;;;6324975;28;20267;-74
2023/07/18 04:31:14;;;;;;;5.70;2.40;;;;;;;;;;6309957;28;20262;-74
2023/07/18 04:34:22;;;;;;;4.80;2.00;;;;;;;;;;6310152;28;20235;-74
2023/07/18 04:37:26;;;;;;;5.47;2.10;;;;;;;;;;6310608;28;20235;-75
2023/07/18 04:40:29;;;;;;;3.63;1.77;;;;;;;;;;6310117;28;20239;-74
2023/07/18 04:43:34;;;;;;;2.08;1.88;;;;;;;;;;6290763;28;20271;-74
2023/07/18 04:46:39;;;;;;;2.47;2.08;;;;;;;;;;6309951;28;20227;-74
2023/07/18 04:49:43;;;;;;;4.00;2.05;;;;;;;;;;6310400;28;20238;-74
2023/07/18 04:52:47;;;;;;;4.78;2.05;;;;;;;;;;6313795;28;20263;-74
2023/07/18 04:55:51;;;;;;;7.22;2.10;;;;;;;;;;6292392;28;20270;-74
2023/07/18 04:58:57;;;;;;;5.93;2.30;;;;;;;;;;6314807;28;20238;-75
2023/07/18 05:02:01;;;;;;;5.40;1.95;;;;;;;;;;6314791;28;20283;-74
2023/07/18 05:05:06;;;;;;;5.35;1.90;;;;;;;;;;6314248;28;20235;-75
2023/07/18 05:08:10;;;;;;;8.50;2.08;;;;;;;;;;6314498;28;20393;-75
2023/07/18 05:11:13;;;;;;;3.28;1.98;;;;;;;;;;6315129;28;20258;-75
2023/07/18 05:14:19;;;;;;;5.18;1.98;;;;;;;;;;6315177;28;20247;-75
2023/07/18 05:17:22;;;;;;;2.83;2.30;;;;;;;;;;6313833;28;20244;-74
2023/07/18 05:20:26;;;;;;;5.25;2.28;;;;;;;;;;6314332;28;20255;-75
2023/07/18 05:23:33;;;;;;;4.85;1.77;;;;;;;;;;6313645;28;20243;-75
2023/07/18 05:26:37;;;;;;;4.43;1.90;;;;;;;;;;6314349;28;20242;-75
2023/07/18 05:29:42;;;;;;;3.53;1.98;;;;;;;;;;6314003;28;20405;-75
2023/07/18 05:32:46;;;;;;;4.93;2.08;;;;;;;;;;6313655;28;20262;-74
2023/07/18 05:35:50;;;;;;;3.33;2.05;;;;;;;;;;6313838;28;20235;-74
2023/07/18 05:38:54;;;;;;;12.70;2.15;;;;;;;;;;6296373;28;20551;-74
2023/07/18 05:41:58;;;;;;;4.35;2.33;;;;;;;;;;6313416;28;20235;-74
2023/07/18 05:45:03;;;;;;;4.15;1.90;;;;;;;;;;6313437;28;20243;-75
2023/07/18 05:48:07;;;;;;;3.38;2.08;;;;;;;;;;6313404;28;20243;-74
2023/07/18 05:51:11;;;;;;;3.88;2.00;;;;;;;;;;6313187;28;20503;-74
2023/07/18 05:54:15;;;;;;;2.88;1.88;;;;;;;;;;6313328;28;20263;-74
2023/07/18 05:57:18;;;;;;;3.67;1.73;;;;;;;;;;6313014;28;20246;-74
2023/07/18 06:00:24;;;;;;;5.65;2.17;;;;;;;;;;6312928;28;20243;-75
2023/07/18 06:03:28;;;;;;;3.40;2.17;;;;;;;;;;6312392;28;20284;-74
2023/07/18 06:06:34;;;;;;;5.00;2.28;;;;;;;;;;6313001;28;20235;-75
2023/07/18 06:09:38;;;;;;;6.82;1.80;;;;;;;;;;6312587;28;20317;-75
2023/07/18 06:12:42;;;;;;;1.90;1.70;;;;;;;;;;6312091;28;20451;-75
2023/07/18 06:15:50;;;;;;;7.70;1.80;;;;;;;;;;6313004;28;20235;-75
2023/07/18 06:18:54;;;;;;;6.00;1.60;;;;;;;;;;6312228;28;20231;-76
2023/07/18 06:21:58;;;;;;;5.65;2.00;;;;;;;;;;6312797;28;20239;-74
2023/07/18 06:25:02;;;;;;;5.80;2.17;;;;;;;;;;6312672;28;20235;-75
2023/07/18 06:28:07;;;;;;;5.05;1.60;;;;;;;;;;6312421;28;20247;-75
2023/07/18 06:31:14;;;;;;;5.45;1.85;;;;;;;;;;6312830;28;20251;-75
2023/07/18 06:34:18;;;;;;;5.53;2.00;;;;;;;;;;6312316;28;20263;-74
2023/07/18 06:37:22;;;;;;;6.75;1.85;;;;;;;;;;6311938;28;20234;-74
2023/07/18 06:40:25;;;;;;;3.65;1.90;;;;;;;;;;6311193;28;20428;-75
2023/07/18 06:43:29;;;;;;;2.78;1.55;;;;;;;;;;6292993;28;20286;-75
2023/07/18 06:46:34;;;;;;;4.68;1.80;;;;;;;;;;6311865;28;20239;-75
2023/07/18 06:49:38;;;;;;;5.32;1.50;;;;;;;;;;6311289;28;20242;-75
2023/07/18 06:52:42;;;;;;;2.17;1.55;;;;;;;;;;6311322;28;20413;-74
2023/07/18 06:55:46;;;;;;;4.25;1.45;;;;;;;;;;6311557;28;20231;-74
2023/07/18 06:58:50;;;;;;;5.75;2.05;;;;;;;;;;6311560;28;20242;-74
2023/07/18 07:01:55;;;;;;;4.03;1.70;;;;;;;;;;6311791;28;20250;-75
2023/07/18 07:04:59;;;;;;;3.85;1.60;;;;;;;;;;6311835;28;20247;-75
2023/07/18 07:08:03;;;;;;;4.95;1.65;;;;;;;;;;6311405;28;20263;-74
2023/07/18 07:11:08;;;;;;;1.50;1.50;;;;;;;;;;6311762;28;20247;-74
2023/07/18 07:14:12;;;;;;;1.40;1.30;;;;;;;;;;6310988;28;20266;-75
2023/07/18 07:17:17;;;;;;;1.42;1.27;;;;;;;;;;6311697;28;20250;-74
2023/07/18 07:20:23;;;;;;;1.58;1.40;;;;;;;;;;6311022;28;20235;-75
2023/07/18 07:23:28;;;;;;;2.63;1.48;;;;;;;;;;6311383;28;20255;-75
2023/07/18 07:26:32;;;;;;;5.50;1.40;;;;;;;;;;6311784;28;20238;-75
2023/07/18 07:29:38;;;;;;;3.55;1.52;;;;;;;;;;6311444;28;20235;-74
2023/07/18 07:32:44;;;;;;;5.70;1.50;;;;;;;;;;6311139;28;20238;-75
2023/07/18 07:35:48;;;;;;;2.00;1.40;;;;;;;;;;6311699;28;20255;-74
2023/07/18 07:38:52;;;;;;;2.25;1.30;;;;;;;;;;6311093;28;20246;-74
2023/07/18 07:41:55;;;;;;;2.40;1.42;;;;;;;;;;6311399;28;20239;-75
2023/07/18 07:44:59;;;;;;;1.58;1.33;;;;;;;;;;6311617;28;20246;-75
2023/07/18 07:48:04;;;;;;;3.88;1.15;;;;;;;;;;6314799;28;20284;-73
2023/07/18 07:51:08;;;;;;;1.58;1.48;;;;;;;;;;6311796;28;20238;-74
2023/07/18 07:54:12;;;;;;;1.98;1.42;;;;;;;;;;6311703;28;20278;-74
2023/07/18 07:57:16;;;;;;;3.22;1.58;;;;;;;;;;6311277;28;20247;-75
2023/07/18 08:00:21;;;;;;;3.92;1.45;;;;;;;;;;6311137;28;20239;-74
2023/07/18 08:03:26;;;;;;;7.10;1.45;;;;;;;;;;6310399;28;20476;-74
2023/07/18 08:06:30;;;;;;;3.72;1.48;;;;;;;;;;6310788;28;20244;-75
2023/07/18 08:09:34;;;;;;;1.23;1.13;;;;;;;;;;6311231;28;20406;-75
2023/07/18 08:12:38;;;;;;;1.52;1.38;;;;;;;;;;6309911;28;20247;-74
2023/07/18 08:15:41;;;;;;;3.33;1.40;;;;;;;;;;6310065;28;20440;-74
2023/07/18 08:18:47;;;;;;;2.28;1.23;;;;;;;;;;6310146;28;20251;-75
2023/07/18 08:21:51;;;;;;;3.58;1.30;;;;;;;;;;6310384;28;20231;-75
2023/07/18 08:24:55;;;;;;;3.70;1.20;;;;;;;;;;6310326;28;20246;-75
2023/07/18 08:27:59;;;;;;;2.05;1.30;;;;;;;;;;6309911;28;20239;-75
2023/07/18 08:31:04;;;;;;;5.53;1.55;;;;;;;;;;6309855;28;20425;-75
2023/07/18 08:34:09;;;;;;;2.13;1.50;;;;;;;;;;6314934;28;20547;-75
2023/07/18 08:37:13;;;;;;;2.17;1.30;;;;;;;;;;6314270;28;20243;-75
2023/07/18 08:40:17;;;;;;;2.15;1.15;;;;;;;;;;6296251;28;20547;-75
2023/07/18 08:43:21;;;;;;;1.85;1.10;;;;;;;;;;6315148;28;20247;-75
2023/07/18 08:46:26;;;;;;;2.72;1.55;;;;;;;;;;6314334;28;20239;-75
2023/07/18 08:49:32;;;;;;;3.40;1.45;;;;;;;;;;6314305;28;20243;-75
2023/07/18 08:52:39;;;;;;;5.25;1.50;;;;;;;;;;6313855;28;20239;-75
2023/07/18 08:55:43;;;;;;;1.50;1.35;;;;;;;;;;6314095;28;20266;-75
2023/07/18 08:58:47;;;;;;;1.48;1.02;;;;;;;;;;6314505;28;20234;-75
2023/07/18 09:01:52;;;;;;;4.35;1.38;;;;;;;;;;6314287;27;20317;-75
2023/07/18 09:04:57;;;;;;;1.30;1.23;;;;;;;;;;6295915;28;20273;-75
2023/07/18 09:08:02;;;;;;;4.15;1.27;;;;;;;;;;6313686;28;20248;-76
2023/07/18 09:11:06;;;;;;;2.30;0.95;;;;;;;;;;6314215;28;20231;-76
2023/07/18 09:14:10;;;;;;;1.55;1.20;;;;;;;;;;6313940;28;20503;-76
2023/07/18 09:17:13;;;;;;;1.42;1.10;;;;;;;;;;6313705;28;20242;-75
2023/07/18 09:20:19;;;;;;;1.48;1.30;;;;;;;;;;6295563;28;20274;-75
2023/07/18 09:23:23;;;;;;;4.32;1.60;;;;;;;;;;6314130;28;20235;-75
2023/07/18 09:26:26;;;;;;;4.70;1.35;;;;;;;;;;6313951;28;20493;-76
2023/07/18 09:29:30;;;;;;;2.08;1.30;;;;;;;;;;6314024;28;20503;-76
2023/07/18 09:32:34;;;;;;;1.33;1.15;;;;;;;;;;6314231;28;20299;-75
2023/07/18 09:35:40;;;;;;;2.50;1.20;;;;;;;;;;6313873;28;20263;-75
2023/07/18 09:38:45;;;;;;;4.70;1.20;;;;;;;;;;6313675;28;20515;-76
2023/07/18 09:41:49;;;;;;;1.40;1.30;;;;;;;;;;6313133;28;20243;-73
2023/07/18 09:44:54;;;;;;;2.45;1.52;;;;;;;;;;6313123;28;20246;-74
2023/07/18 09:48:00;;;;;;;3.80;1.38;;;;;;;;;;6313498;28;20231;-76
2023/07/18 09:51:08;;;;;;;1.45;1.33;;;;;;;;;;6313723;28;20338;-75
2023/07/18 09:54:12;;;;;;;1.40;1.30;;;;;;;;;;6312940;28;20400;-74
2023/07/18 09:57:16;;;;;;;1.75;1.65;;;;;;;;;;6313052;28;20255;-74
2023/07/18 10:00:21;;;;;;;1.20;1.08;;;;;;;;;;6312805;28;20243;-74
2023/07/18 10:03:25;;;;;;;1.70;1.58;;;;;;;;;;6312576;28;20299;-74
2023/07/18 10:06:32;;;;;;;3.53;1.35;;;;;;;;;;6313198;28;20239;-75
2023/07/18 10:09:36;;;;;;;3.47;1.30;;;;;;;;;;6313464;28;20243;-75
2023/07/18 10:12:59;;;;;;;4.35;1.20;;;;;;;;;;6312938;28;20239;-75
2023/07/18 10:16:19;;;;;;;2.65;1.17;;;;;;;;;;6313088;28;20279;-75
2023/07/18 10:19:24;;;;;;;3.35;1.45;;;;;;;;;;6312360;28;20244;-74
2023/07/18 10:22:31;;;;;;;1.95;1.10;;;;;;;;;;6312346;28;20239;-74
2023/07/18 10:25:37;;;;;;;1.67;1.13;;;;;;;;;;6312187;28;20247;-75
2023/07/18 10:28:46;;;;;;;5.18;1.55;;;;;;;;;;6313029;28;20243;-75
2023/07/18 10:31:50;;;;;;;2.60;1.20;;;;;;;;;;6294276;28;20283;-74
2023/07/18 10:34:54;;;;;;;1.17;1.13;;;;;;;;;;6312052;28;20270;-74
2023/07/18 10:38:06;;;;;;;1.70;1.60;;;;;;;;;;6312756;28;20251;-74
2023/07/18 10:41:10;;;;;;;3.38;1.42;;;;;;;;;;6297735;28;20275;-74
2023/07/18 10:44:14;;;;;;;1.40;1.40;;;;;;;;;;6312063;28;20230;-75
2023/07/18 10:47:19;;;;;;;4.25;1.35;;;;;;;;;;6312159;28;20507;-75
2023/07/18 10:50:23;;;;;;;1.30;1.30;;;;;;;;;;6311844;28;20242;-75
2023/07/18 10:53:29;;;;;;;4.78;1.40;;;;;;;;;;6293650;28;20266;-75
2023/07/18 10:56:33;;;;;;;3.45;1.48;;;;;;;;;;6292862;28;20286;-75
2023/07/18 10:59:37;;;;;;;1.40;1.30;;;;;;;;;;6311867;28;20520;-75
2023/07/18 11:02:43;;;;;;;1.20;1.20;;;;;;;;;;6311070;28;20512;-75
2023/07/18 11:05:48;;;;;;;1.27;1.20;;;;;;;;;;6311248;28;20251;-75
2023/07/18 11:08:58;;;;;;;5.78;1.30;;;;;;;;;;6312177;28;20515;-74
2023/07/18 11:12:03;;;;;;;1.45;1.30;;;;;;;;;;6312486;28;20246;-74
2023/07/18 11:15:09;;;;;;;3.35;1.30;;;;;;;;;;6312123;28;20267;-75
2023/07/18 11:18:14;;;;;;;2.95;1.40;;;;;;;;;;6293442;28;20259;-75
2023/07/18 11:21:18;;;;;;;2.53;1.30;;;;;;;;;;6311620;28;20508;-75
2023/07/18 11:24:25;;;;;;;3.22;1.50;;;;;;;;;;6293176;28;20289;-75
2023/07/18 11:27:31;;;;;;;1.63;1.58;;;;;;;;;;6311638;28;20239;-75
2023/07/18 11:30:35;;;;;;;3.45;1.20;;;;;;;;;;6312063;28;20239;-75
2023/07/18 11:33:39;;;;;;;2.53;1.35;;;;;;;;;;6292951;28;20266;-75
2023/07/18 11:36:43;;;;;;;1.60;1.48;;;;;;;;;;6311183;28;20378;-75
2023/07/18 11:39:49;;;;;;;1.27;1.27;;;;;;;;;;6310999;28;20399;-74
2023/07/18 11:42:55;;;;;;;6.35;1.77;;;;;;;;;;6311204;28;20281;-75
2023/07/18 11:45:58;;;;;;;1.38;1.38;;;;;;;;;;6293064;28;20270;-75
2023/07/18 11:49:02;;;;;;;1.73;1.23;;;;;;;;;;6311233;28;20243;-74
2023/07/18 11:52:08;;;;;;;1.52;1.30;;;;;;;;;;6311134;28;20231;-75
2023/07/18 11:55:13;;;;;;;4.05;1.88;;;;;;;;;;6310561;28;20244;-75
2023/07/18 11:58:17;;;;;;;2.60;1.50;;;;;;;;;;6310756;28;20311;-74
2023/07/18 12:01:21;;;;;;;2.15;1.60;;;;;;;;;;6310793;27;20326;-74
2023/07/18 12:04:25;;;;;;;4.47;2.80;;;;;;;;;;6260762;28;20299;-74
2023/07/18 12:07:29;;;;;;;1.67;1.30;;;;;;;;;;6264922;28;20235;-74
2023/07/18 12:10:34;;;;;;;3.50;1.25;;;;;;;;;;6265983;28;20241;-75
2023/07/18 12:13:40;;;;;;;1.17;1.17;;;;;;;;;;6265321;28;20240;-75
2023/07/18 12:16:44;;;;;;;5.35;1.40;;;;;;;;;;6265206;28;20280;-74
2023/07/18 12:19:48;;;;;;;1.40;1.40;;;;;;;;;;6265511;28;20240;-74
2023/07/18 12:22:52;;;;;;;2.05;1.40;;;;;;;;;;6266129;28;20379;-75
2023/07/18 12:25:57;;;;;;;1.50;1.40;;;;;;;;;;6264957;28;20248;-74
2023/07/18 12:29:03;;;;;;;7.35;1.73;;;;;;;;;;6264723;28;20244;-74
2023/07/18 12:32:09;;;;;;;1.40;1.40;;;;;;;;;;6264851;28;20237;-75
2023/07/18 12:35:14;;;;;;;1.30;1.30;;;;;;;;;;6265233;28;20236;-74
2023/07/18 12:38:19;;;;;;;1.00;1.00;;;;;;;;;;6265121;28;20420;-74
2023/07/18 12:41:27;;;;;;;1.35;1.25;;;;;;;;;;6265275;28;20240;-75
2023/07/18 12:44:39;;;;;;;3.28;1.23;;;;;;;;;;6264688;28;20244;-75
2023/07/18 12:47:43;;;;;;;1.30;1.30;;;;;;;;;;6264460;28;20240;-75
2023/07/18 12:50:46;;;;;;;1.85;1.23;;;;;;;;;;6264644;28;20248;-76
2023/07/18 12:53:51;;;;;;;1.30;1.10;;;;;;;;;;6265056;28;20244;-76
2023/07/18 12:56:56;;;;;;;1.10;1.10;;;;;;;;;;6264772;28;20271;-75
2023/07/18 13:00:00;;;;;;;3.10;1.10;;;;;;;;;;6265082;28;20236;-76
2023/07/18 13:03:03;;;;;;;1.17;1.17;;;;;;;;;;6286739;28;20290;-75
2023/07/18 13:06:08;;;;;;;2.00;1.27;;;;;;;;;;6314799;28;20243;-76
2023/07/18 13:09:12;;;;;;;2.63;1.20;;;;;;;;;;6313684;28;20239;-76
2023/07/18 13:12:17;;;;;;;0.90;0.90;;;;;;;;;;6313941;28;20247;-76
2023/07/18 13:15:21;;;;;;;1.80;1.08;;;;;;;;;;6314607;28;20500;-76
2023/07/18 13:18:25;;;;;;;3.22;1.40;;;;;;;;;;6312955;28;20284;-76
2023/07/18 13:21:29;;;;;;;2.00;1.35;;;;;;;;;;6314390;28;20244;-76
2023/07/18 13:24:33;;;;;;;2.15;1.55;;;;;;;;;;6313525;28;20235;-76
2023/07/18 13:27:38;;;;;;;1.17;0.98;;;;;;;;;;6313814;28;20515;-76
2023/07/18 13:30:45;;;;;;;1.10;1.10;;;;;;;;;;6313793;28;20239;-76
2023/07/18 13:33:49;;;;;;;2.08;1.20;;;;;;;;;;6314393;28;20239;-75
2023/07/18 13:36:52;;;;;;;1.35;1.25;;;;;;;;;;6317330;28;20262;-76
2023/07/18 13:39:56;;;;;;;1.45;1.30;;;;;;;;;;6313951;28;20486;-75
2023/07/18 13:43:02;;;;;;;1.92;0.95;;;;;;;;;;6313620;28;20485;-76
2023/07/18 13:46:05;;;;;;;1.00;1.00;;;;;;;;;;6313579;28;20242;-75
2023/07/18 13:49:09;;;;;;;3.65;1.20;;;;;;;;;;6313579;28;20243;-76
2023/07/18 13:52:13;;;;;;;2.38;1.20;;;;;;;;;;6295003;28;20451;-75
2023/07/18 13:55:18;;;;;;;1.75;1.30;;;;;;;;;;6313165;28;20448;-76
2023/07/18 13:58:23;;;;;;;1.52;1.20;;;;;;;;;;6313700;28;20262;-75
2023/07/18 14:01:27;;;;;;;2.20;1.95;;;;;;;;;;6313312;28;20254;-76
2023/07/18 14:04:30;;;;;;;2.13;1.50;;;;;;;;;;6312254;28;20294;-75
2023/07/18 14:07:35;;;;;;;3.45;1.60;;;;;;;;;;6312747;28;20322;-76
2023/07/18 14:10:38;;;;;;;0.98;0.98;;;;;;;;;;6312372;28;20302;-76
2023/07/18 14:13:44;;;;;;;1.30;1.30;;;;;;;;;;6312639;28;20235;-76
2023/07/18 14:16:48;;;;;;;2.53;1.30;;;;;;;;;;6312224;28;20235;-76
2023/07/18 14:19:52;;;;;;;2.35;1.25;;;;;;;;;;6312782;28;20239;-75
2023/07/18 14:22:56;;;;;;;3.95;1.35;;;;;;;;;;6312558;28;20405;-76
2023/07/18 14:26:00;;;;;;;1.35;1.30;;;;;;;;;;6312550;28;20246;-75
2023/07/18 14:29:05;;;;;;;1.60;1.50;;;;;;;;;;6312964;28;20239;-76
2023/07/18 14:32:09;;;;;;;3.25;1.05;;;;;;;;;;6312675;28;20243;-76
2023/07/18 14:35:13;;;;;;;3.03;1.10;;;;;;;;;;6311865;28;20235;-76
2023/07/18 14:38:17;;;;;;;1.00;1.00;;;;;;;;;;6312125;28;20258;-76
2023/07/18 14:41:21;;;;;;;1.27;1.17;;;;;;;;;;6311674;28;20251;-75
2023/07/18 14:44:26;;;;;;;1.38;1.38;;;;;;;;;;6294298;28;20420;-76
2023/07/18 14:47:30;;;;;;;3.90;1.40;;;;;;;;;;6312039;28;20242;-76
2023/07/18 14:50:34;;;;;;;2.58;1.20;;;;;;;;;;6312025;28;20247;-75
2023/07/18 14:53:37;;;;;;;1.65;1.55;;;;;;;;;;6312179;28;20243;-75
2023/07/18 14:56:41;;;;;;;1.00;1.00;;;;;;;;;;6312336;28;20255;-76
2023/07/18 14:59:49;;;;;;;1.17;1.17;;;;;;;;;;6311968;28;20258;-76
2023/07/18 15:02:53;;;;;;;3.88;1.55;;;;;;;;;;6311855;28;20302;-76
2023/07/18 15:05:58;;;;;;;2.83;1.45;;;;;;;;;;6311595;28;20234;-75
2023/07/18 15:09:02;;;;;;;1.10;1.10;;;;;;;;;;6311584;28;20243;-76
2023/07/18 15:12:06;;;;;;;1.38;1.17;;;;;;;;;;6312087;28;20246;-75
2023/07/18 15:15:11;;;;;;;1.58;0.90;;;;;;;;;;6312298;28;20491;-77
2023/07/18 15:18:17;;;;;;;2.10;1.20;;;;;;;;;;6311503;28;20266;-75
2023/07/18 15:21:20;;;;;;;1.00;1.00;;;;;;;;;;6311397;28;20248;-76
2023/07/18 15:24:24;;;;;;;2.67;2.58;;;;;;;;;;6311475;28;20287;-76
2023/07/18 15:27:28;;;;;;;2.47;2.38;;;;;;;;;;6311073;28;20234;-76
2023/07/18 15:30:34;;;;;;;1.33;1.20;;;;;;;;;;6311345;28;20235;-75
2023/07/18 15:33:38;;;;;;;1.85;1.10;;;;;;;;;;6311400;28;20411;-75
2023/07/18 15:36:45;;;;;;;1.95;1.20;;;;;;;;;;6311949;28;20246;-76
2023/07/18 15:39:49;;;;;;;2.28;1.08;;;;;;;;;;6311696;28;20267;-76
2023/07/18 15:42:53;;;;;;;2.13;1.40;;;;;;;;;;6310820;28;20432;-76
2023/07/18 15:45:58;;;;;;;1.50;1.40;;;;;;;;;;6310713;28;20235;-74
2023/07/18 15:49:03;;;;;;;1.45;1.45;;;;;;;;;;6310803;28;20243;-75
2023/07/18 15:52:08;;;;;;;3.08;1.15;;;;;;;;;;6311116;28;20239;-75
2023/07/18 15:55:11;;;;;;;1.10;1.00;;;;;;;;;;6310956;28;20504;-75
2023/07/18 15:58:15;;;;;;;1.00;1.00;;;;;;;;;;6310854;28;20258;-75
2023/07/18 16:01:20;;;;;;;2.70;2.33;;;;;;;;;;6310444;27;20496;-75
2023/07/18 16:04:24;;;;;;;2.38;1.30;;;;;;;;;;6310186;28;20326;-75
2023/07/18 16:07:28;;;;;;;5.25;1.40;;;;;;;;;;6310287;28;20242;-75
2023/07/18 16:10:32;;;;;;;1.52;1.40;;;;;;;;;;6310677;28;20246;-75
2023/07/18 16:13:35;;;;;;;1.67;1.58;;;;;;;;;;6310639;28;20242;-75
2023/07/18 16:16:42;;;;;;;4.20;1.40;;;;;;;;;;6311166;28;20559;-76
2023/07/18 16:19:47;;;;;;;1.95;1.38;;;;;;;;;;6310626;28;20279;-76
2023/07/18 16:22:52;;;;;;;1.17;1.17;;;;;;;;;;6309870;28;20242;-74
2023/07/18 16:25:56;;;;;;;0.93;0.93;;;;;;;;;;6310674;28;20247;-74
2023/07/18 16:29:00;;;;;;;0.88;0.88;;;;;;;;;;6310600;28;20243;-74
2023/07/18 16:32:06;;;;;;;2.67;1.20;;;;;;;;;;6291925;28;20463;-74
2023/07/18 16:35:10;;;;;;;1.25;1.13;;;;;;;;;;6313113;28;20239;-74
2023/07/18 16:38:14;;;;;;;1.13;1.13;;;;;;;;;;6311855;28;20512;-75
2023/07/18 16:41:18;;;;;;;3.42;1.23;;;;;;;;;;6310822;28;20338;-76
2023/07/18 16:44:22;;;;;;;1.63;1.40;;;;;;;;;;6310601;28;20240;-76
2023/07/18 16:47:27;;;;;;;1.35;1.35;;;;;;;;;;6310419;28;20239;-75
2023/07/18 16:50:31;;;;;;;1.27;1.27;;;;;;;;;;6309858;28;20247;-75
2023/07/18 16:53:38;;;;;;;1.20;1.20;;;;;;;;;;6313265;28;20396;-75
2023/07/18 16:56:42;;;;;;;0.90;0.90;;;;;;;;;;6315151;28;20255;-76
2023/07/18 16:59:46;;;;;;;1.20;1.00;;;;;;;;;;6314104;28;20283;-75
2023/07/18 17:02:51;;;;;;;2.10;1.10;;;;;;;;;;6314484;28;20285;-76
2023/07/18 17:05:55;;;;;;;1.25;1.17;;;;;;;;;;6314478;28;20238;-75
2023/07/18 17:08:58;;;;;;;1.10;1.10;;;;;;;;;;6295684;28;20286;-76
2023/07/18 17:12:03;;;;;;;1.90;0.98;;;;;;;;;;6314657;28;20239;-75
2023/07/18 17:15:07;;;;;;;3.83;1.10;;;;;;;;;;6314606;28;20307;-75
2023/07/18 17:18:12;;;;;;;1.27;1.00;;;;;;;;;;6313944;28;20239;-75
2023/07/18 17:21:16;;;;;;;1.20;1.20;;;;;;;;;;6314135;28;20266;-75
2023/07/18 17:24:20;;;;;;;2.53;1.00;;;;;;;;;;6313868;28;20518;-75
2023/07/18 17:27:24;;;;;;;1.35;1.00;;;;;;;;;;6313431;28;20235;-75
2023/07/18 17:30:28;;;;;;;2.95;1.00;;;;;;;;;;6314378;28;20368;-75
2023/07/18 17:33:33;;;;;;;1.02;1.00;;;;;;;;;;6313700;28;20243;-74
2023/07/18 17:36:37;;;;;;;1.15;1.05;;;;;;;;;;6313522;28;20247;-75
2023/07/18 17:39:43;;;;;;;1.17;1.10;;;;;;;;;;6313994;28;20263;-75
2023/07/18 17:42:47;;;;;;;1.65;0.80;;;;;;;;;;6313285;28;20247;-75
2023/07/18 17:45:50;;;;;;;0.90;0.90;;;;;;;;;;6313405;28;20243;-75
2023/07/18 17:48:56;;;;;;;2.70;1.00;;;;;;;;;;6313885;28;20238;-75
2023/07/18 17:52:00;;;;;;;2.45;0.90;;;;;;;;;;6313246;28;20243;-75
2023/07/18 17:55:04;;;;;;;0.93;0.93;;;;;;;;;;6313108;28;20239;-75
2023/07/18 17:58:08;;;;;;;3.20;0.68;;;;;;;;;;6313804;28;20274;-75
2023/07/18 18:01:12;;;;;;;1.08;0.82;;;;;;;;;;6312803;28;20271;-76
2023/07/18 18:04:17;;;;;;;1.42;1.00;;;;;;;;;;6313771;28;20290;-75
2023/07/18 18:07:21;;;;;;;1.80;0.93;;;;;;;;;;6312538;28;20370;-74
2023/07/18 18:10:24;;;;;;;1.25;0.80;;;;;;;;;;6312711;28;20242;-74
2023/07/18 18:13:28;;;;;;;0.82;0.82;;;;;;;;;;6312854;28;20254;-74
2023/07/18 18:16:32;;;;;;;0.82;0.82;;;;;;;;;;6312583;28;20243;-74
2023/07/18 18:19:37;;;;;;;1.00;1.00;;;;;;;;;;6312439;28;20262;-74
2023/07/18 18:22:41;;;;;;;1.02;0.98;;;;;;;;;;6312898;28;20508;-75
2023/07/18 18:25:45;;;;;;;0.90;0.90;;;;;;;;;;6312736;28;20243;-74